Bloomery, WV (26817)

9:49 AM EST on January 29, 2015 (GMT -0500)
APRSWXNET Slanesville WV US | Change Station
CLOSE
Current Station
Personal Weather Station
Location: Slanesville, WV
Elevation: 774 ft
Nearby Weather Stations
Active Advisory: Winter Weather Advisory

Elev 774 ft 39.35 °N, 78.50 °W | Updated 31 minutes ago

Mostly Cloudy
Mostly Cloudy
17 °F
Feels Like -26 °F
N
327
Wind Variable Wind from SSE
Gusts 327.0 mph

Today
High -- | Low -- °F
--% Chance of Precip.
Yesterday
High -- | Low -- °F
Precip. -- in
7:23 AM 5:30 PM
Waxing Gibbous, 75% visible
Pressure 30.23 in
Visibility 10.0 miles
Clouds Mostly Cloudy 11000 ft
Windchill -26 °F
Dew Point 13 °F
Humidity 84%
Rainfall 0.00 in
Snow Depth Not available.
UV 1 out of 12
Pollen .30 out of 12
Air Quality Not available.
Flu Activity Not available.
METAR KOKV 291435Z AUTO 00000KT 10SM BKN110 M02/M11 A3023 RMK AO2

More Conditions Fewer Conditions

Pressure 30.23 in
Visibility 10.0 miles
Clouds Mostly Cloudy 11000 ft
Windchill -26 °F
Dew Point 13 °F
Humidity 84%
Rainfall 0.00 in
Snow Depth Not available.
UV 1 out of 12
Pollen .30 out of 12
Air Quality Not available.
Flu Activity Not available.
METAR KOKV 291435Z AUTO 00000KT 10SM BKN110 M02/M11 A3023 RMK AO2

More Conditions Fewer Conditions

10-Day Weather Forecast

Almanac

Astronomy

Jan. 29, 2015 Rise Set
Actual Time
Civil Twilight
Nautical Twilight
Astronomical Twilight
Moon
Length of Visible Light
Length of Day
Tomorrow will be .
, % of the Moon is Illuminated

Today's Extremes

State Highs State Lows

Community

WunderPhotos

Upload Photos

1,791,443 photos uploaded!

WunderBlogs® & News

Nearby

Air Quality

  Air Quality AQ Index Pollutant
Not available.

Snow Depth

Station Depth Elevation

Earthquake Activity

City Distance Mag. Time & Date
Minimum magnitude displayed is 2.5.

Coastal Water Temperatures

Place Temperature

Nearby Weather Stations